Terminal Aerodrome Forecast
Issued by NWS Bismarck, ND

Home | Current Version | Previous Version | Graphics & Text | Print | Product List | Glossary On
Versions: 1 2 3 4 5 6 7 8 9 10 11 12 13 14 15 16 17 18 19 20
000
FTUS43 KBIS 072300
TAFBIS
TAF
KBIS 072339Z 0800/0824 32014G24KT P6SM VCTS SCT045 BKN080CB
      TEMPO 0800/0801 VRB20G30KT -SHRA BKN060
     FM080200 31012KT P6SM SCT040
     FM080600 30008KT P6SM SCT015 SCT025
     FM081400 32015KT P6SM SCT040=

USA.gov is the U.S. government's official web portal to all federal, state and local government web resources and services.